createdAt,value
2023-03-26T00:01:29.778Z,99851.84
2023-03-26T00:04:19.941Z,99857.97
2023-03-26T00:07:05.315Z,99851.97
2023-03-26T00:09:50.565Z,99861.47
2023-03-26T00:12:36.353Z,99860.63
2023-03-26T00:15:21.915Z,99866.72
2023-03-26T00:18:09.329Z,99869.34
2023-03-26T00:20:54.651Z,99872.88
2023-03-26T00:23:41.548Z,99877.19
2023-03-26T00:26:31.195Z,99878.06
2023-03-26T00:29:17.048Z,99872.88
2023-03-26T00:32:02.963Z,99879.78
2023-03-26T00:34:48.296Z,99890.19
2023-03-26T00:37:33.889Z,99884.13
2023-03-26T00:40:19.651Z,99880.66
2023-03-26T00:43:18.580Z,99882.38
2023-03-26T00:46:04.198Z,99894.47
2023-03-26T00:48:50.772Z,99896.19
2023-03-26T00:51:37.511Z,99898.78
2023-03-26T00:54:23.258Z,99897.94
2023-03-26T00:57:10.631Z,99894.47
2023-03-26T00:59:56.703Z,99889.25
2023-03-26T01:02:45.276Z,99896.19
2023-03-26T01:05:45.620Z,99897.03
2023-03-26T01:08:39.007Z,99893.56
2023-03-26T01:11:31.369Z,99895.28
2023-03-26T01:14:21.407Z,99895.28
2023-03-26T01:17:08.335Z,99897.03
2023-03-26T01:20:07.293Z,99901.34
2023-03-26T01:22:58.255Z,99903.06
2023-03-26T01:25:51.227Z,99910.00
2023-03-26T01:28:41.396Z,99905.66
2023-03-26T01:31:45.207Z,99901.34
2023-03-26T01:35:08.437Z,99909.09
2023-03-26T01:38:18.591Z,99912.59
2023-03-26T01:41:21.037Z,99918.63
2023-03-26T01:44:15.442Z,99920.34
2023-03-26T01:47:01.757Z,99924.72
2023-03-26T01:49:48.685Z,99919.50
2023-03-26T01:52:34.309Z,99926.44
2023-03-26T01:55:20.982Z,99925.59
2023-03-26T01:58:23.945Z,99928.19
2023-03-26T02:01:24.521Z,99923.88
2023-03-26T02:04:23.043Z,99930.78
2023-03-26T02:07:40.624Z,99922.16
2023-03-26T02:10:29.793Z,99921.28
2023-03-26T02:13:15.806Z,99922.13
2023-03-26T02:16:03.415Z,99925.59
2023-03-26T02:18:51.558Z,99930.72
2023-03-26T02:21:37.770Z,99922.06
2023-03-26T02:24:23.224Z,99924.59
2023-03-26T02:27:13.844Z,99923.72
2023-03-26T02:29:59.449Z,99929.78
2023-03-26T02:32:45.365Z,99927.19
2023-03-26T02:35:31.122Z,99930.72
2023-03-26T02:38:19.637Z,99935.00
2023-03-26T02:41:05.883Z,99940.22
2023-03-26T02:44:07.703Z,99943.69
2023-03-26T02:47:29.054Z,99947.16
2023-03-26T02:50:37.160Z,99956.69
2023-03-26T02:53:41.493Z,99965.34
2023-03-26T02:56:45.825Z,99966.19
2023-03-26T02:59:40.347Z,99971.38
2023-03-26T03:02:58.162Z,99980.91
2023-03-26T03:05:57.688Z,99993.84
2023-03-26T03:08:50.047Z,99985.22
2023-03-26T03:11:36.250Z,99996.44
2023-03-26T03:14:21.564Z,99998.19
2023-03-26T03:17:07.013Z,99994.72
2023-03-26T03:19:52.887Z,99993.00
2023-03-26T03:22:38.293Z,99994.75
2023-03-26T03:25:23.581Z,100000.78
2023-03-26T03:28:09.685Z,99999.94
2023-03-26T03:30:57.735Z,100008.59
2023-03-26T03:33:51.547Z,100016.38
2023-03-26T03:36:38.639Z,100012.94
2023-03-26T03:39:44.637Z,100010.34
2023-03-26T03:42:32.727Z,100011.19
2023-03-26T03:45:21.232Z,100018.97
2023-03-26T03:48:39.488Z,100022.44
2023-03-26T03:51:26.666Z,100025.03
2023-03-26T03:54:15.706Z,100028.50
2023-03-26T03:57:04.649Z,100031.06
2023-03-26T03:59:59.644Z,100031.06
2023-03-26T04:02:50.141Z,100035.41
2023-03-26T04:05:36.534Z,100034.56
2023-03-26T04:08:23.502Z,100039.75
2023-03-26T04:11:15.436Z,100038.84
2023-03-26T04:14:27.103Z,100043.19
2023-03-26T04:17:17.133Z,100045.78
2023-03-26T04:20:06.976Z,100044.94
2023-03-26T04:22:52.866Z,100059.63
2023-03-26T04:25:54.039Z,100066.53
2023-03-26T04:28:53.383Z,100073.47
2023-03-26T04:31:43.299Z,100078.66
2023-03-26T04:34:31.290Z,100080.41
2023-03-26T04:37:44.507Z,100085.59
2023-03-26T04:40:37.412Z,100087.31
2023-03-26T04:43:31.404Z,100093.38
2023-03-26T04:46:23.718Z,100094.25
2023-03-26T04:49:19.974Z,100095.97
2023-03-26T04:52:05.649Z,100115.00
2023-03-26T04:55:24.944Z,100122.78
2023-03-26T04:58:20.245Z,100132.28
2023-03-26T05:01:16.848Z,100126.25
2023-03-26T05:04:04.225Z,100136.63
2023-03-26T05:06:50.213Z,100143.56
2023-03-26T05:09:41.568Z,100144.41
2023-03-26T05:12:33.233Z,100158.25
2023-03-26T05:15:23.470Z,100160.84
2023-03-26T05:18:09.255Z,100167.75
2023-03-26T05:20:58.384Z,100176.41
2023-03-26T05:23:45.127Z,100182.47
2023-03-26T05:26:37.650Z,100178.16
2023-03-26T05:29:24.291Z,100187.66
2023-03-26T05:32:12.818Z,100189.38
2023-03-26T05:34:58.762Z,100202.34
2023-03-26T05:37:49.691Z,100211.00
2023-03-26T05:40:38.732Z,100211.88
2023-03-26T05:43:25.415Z,100216.19
2023-03-26T05:46:22.145Z,100226.56
2023-03-26T05:49:08.261Z,100226.53
2023-03-26T05:51:55.501Z,100235.19
2023-03-26T05:55:18.460Z,100243.84
2023-03-26T05:58:22.754Z,100250.75
2023-03-26T06:01:27.252Z,100253.31
2023-03-26T06:04:32.178Z,100255.06
2023-03-26T06:07:36.337Z,100269.75
2023-03-26T06:10:41.864Z,100269.75
2023-03-26T06:13:28.005Z,100268.88
2023-03-26T06:16:26.096Z,100282.69
2023-03-26T06:19:31.290Z,100290.44
2023-03-26T06:22:24.159Z,100299.94
2023-03-26T06:25:32.630Z,100301.69
2023-03-26T06:28:47.907Z,100306.88
2023-03-26T06:31:52.447Z,100317.22
2023-03-26T06:34:42.566Z,100325.00
2023-03-26T06:37:28.365Z,100333.69
2023-03-26T06:40:20.189Z,100338.91
2023-03-26T06:43:27.213Z,100351.84
2023-03-26T06:46:27.993Z,100350.97
2023-03-26T06:49:32.280Z,100351.88
2023-03-26T06:52:46.988Z,100362.25
2023-03-26T06:55:50.750Z,100373.47
2023-03-26T06:58:42.300Z,100376.09
2023-03-26T07:01:46.856Z,100380.44
2023-03-26T07:04:51.537Z,100390.78
2023-03-26T07:08:03.393Z,100394.25
2023-03-26T07:11:07.727Z,100404.63
2023-03-26T07:14:25.190Z,100414.19
2023-03-26T07:17:33.209Z,100419.38
2023-03-26T07:20:29.914Z,100426.34
2023-03-26T07:23:20.224Z,100428.09
2023-03-26T07:26:35.554Z,100446.25
2023-03-26T07:29:56.902Z,100458.38
2023-03-26T07:33:05.984Z,100461.84
2023-03-26T07:36:22.018Z,100469.66
2023-03-26T07:39:24.123Z,100484.34
2023-03-26T07:43:13.284Z,100486.94
2023-03-26T07:46:05.083Z,100486.03
2023-03-26T07:49:13.731Z,100487.81
2023-03-26T07:52:18.935Z,100486.94
2023-03-26T07:55:17.998Z,100500.81
2023-03-26T07:58:59.423Z,100511.28
2023-03-26T08:02:31.044Z,100522.56
2023-03-26T08:05:34.095Z,100524.28
2023-03-26T08:09:07.976Z,100533.84
2023-03-26T08:12:43.946Z,100537.19
2023-03-26T08:15:46.106Z,100545.00
2023-03-26T08:18:39.204Z,100554.47
2023-03-26T08:21:29.120Z,100561.41
2023-03-26T08:24:22.965Z,100572.59
2023-03-26T08:27:18.924Z,100586.50
2023-03-26T08:30:18.979Z,100594.31
2023-03-26T08:33:19.004Z,100606.44
2023-03-26T08:36:04.705Z,100605.59
2023-03-26T08:38:51.179Z,100608.06
2023-03-26T08:41:39.344Z,100615.75
2023-03-26T08:45:00.025Z,100632.97
2023-03-26T08:47:55.893Z,100637.28
2023-03-26T08:51:07.873Z,100646.78
2023-03-26T08:54:22.700Z,100659.72
2023-03-26T08:57:30.081Z,100669.31
2023-03-26T09:00:37.133Z,100679.84
2023-03-26T09:03:58.967Z,100684.41
2023-03-26T09:06:59.264Z,100686.31
2023-03-26T09:09:56.103Z,100681.13
2023-03-26T09:13:12.208Z,100676.84
2023-03-26T09:16:16.575Z,100686.31
2023-03-26T09:19:07.780Z,100694.09
2023-03-26T09:22:17.603Z,100704.47
2023-03-26T09:25:15.676Z,100720.00
2023-03-26T09:28:22.169Z,100740.72
2023-03-26T09:31:29.348Z,100744.06
2023-03-26T09:34:57.406Z,100759.59
2023-03-26T09:37:56.073Z,100769.13
2023-03-26T09:41:08.230Z,100775.13
2023-03-26T09:44:12.680Z,100783.81
2023-03-26T09:47:22.778Z,100788.16
2023-03-26T09:50:27.243Z,100793.47
2023-03-26T09:53:40.527Z,100813.41
2023-03-26T09:56:51.882Z,100819.47
2023-03-26T10:00:04.850Z,100822.91
2023-03-26T10:03:13.375Z,100847.03
2023-03-26T10:06:23.830Z,100858.28
2023-03-26T10:09:38.832Z,100870.38
2023-03-26T10:12:36.737Z,100880.75
2023-03-26T10:15:34.681Z,100889.50
2023-03-26T10:18:45.516Z,100897.28
2023-03-26T10:21:46.589Z,100902.44
2023-03-26T10:25:00.582Z,100909.28
2023-03-26T10:28:01.472Z,100911.84
2023-03-26T10:31:24.568Z,100917.94
2023-03-26T10:34:29.108Z,100934.44
2023-03-26T10:37:26.655Z,100944.84
2023-03-26T10:40:43.839Z,100951.00
2023-03-26T10:44:07.456Z,100958.03
2023-03-26T10:47:32.743Z,100962.19
2023-03-26T10:50:29.091Z,100960.34
2023-03-26T10:53:29.797Z,100966.25
2023-03-26T10:56:47.608Z,100980.06
2023-03-26T10:59:33.275Z,100987.91
2023-03-26T11:02:32.010Z,100993.00
2023-03-26T11:05:35.634Z,101004.97
2023-03-26T11:08:36.968Z,101004.81
2023-03-26T11:11:50.141Z,101015.19
2023-03-26T11:15:00.510Z,101022.06
2023-03-26T11:17:52.854Z,101033.38
2023-03-26T11:20:46.719Z,101041.22
2023-03-26T11:23:38.328Z,101044.66
2023-03-26T11:26:33.670Z,101042.03
2023-03-26T11:29:45.445Z,101049.97
2023-03-26T11:32:41.509Z,101061.53
2023-03-26T11:35:40.874Z,101053.81
2023-03-26T11:38:59.788Z,101067.91
2023-03-26T11:41:52.862Z,101059.13
2023-03-26T11:45:00.199Z,101059.31
2023-03-26T11:47:54.953Z,101063.94
2023-03-26T11:50:47.237Z,101069.13
2023-03-26T11:53:35.077Z,101069.88
2023-03-26T11:56:30.252Z,101077.19
2023-03-26T11:59:21.825Z,101071.84
2023-03-26T12:02:13.540Z,101095.44
2023-03-26T12:05:14.061Z,101101.66
2023-03-26T12:08:02.389Z,101104.28
2023-03-26T12:11:01.723Z,101111.78
2023-03-26T12:13:58.550Z,101119.31
2023-03-26T12:17:03.603Z,101126.91
2023-03-26T12:19:49.168Z,101132.97
2023-03-26T12:22:43.460Z,101138.31
2023-03-26T12:25:32.680Z,101147.28
2023-03-26T12:28:19.966Z,101148.19
2023-03-26T12:31:07.608Z,101158.53
2023-03-26T12:34:16.286Z,101150.78
2023-03-26T12:37:03.648Z,101145.69
2023-03-26T12:40:08.827Z,101155.91
2023-03-26T12:44:48.987Z,101160.38
2023-03-26T12:47:57.824Z,101172.72
2023-03-26T12:49:33.613Z,101167.50
2023-03-26T12:52:40.066Z,101182.97
2023-03-26T12:55:45.297Z,101200.25
2023-03-26T12:58:39.689Z,101207.81
2023-03-26T13:01:40.575Z,101207.69
2023-03-26T13:04:55.045Z,101219.06
2023-03-26T13:07:57.930Z,101202.72
2023-03-26T13:11:03.696Z,101203.78
2023-03-26T13:14:17.105Z,101215.38
2023-03-26T13:17:17.551Z,101225.97
2023-03-26T13:20:19.079Z,101216.47
2023-03-26T13:23:24.668Z,101229.97
2023-03-26T13:26:48.700Z,101224.88
2023-03-26T13:30:03.568Z,101228.53
2023-03-26T13:33:15.134Z,101234.66
2023-03-26T13:36:24.325Z,101238.13
2023-03-26T13:39:46.364Z,101232.97
2023-03-26T13:43:09.484Z,101252.25
2023-03-26T13:46:01.208Z,101249.56
2023-03-26T13:48:58.080Z,101252.34
2023-03-26T13:51:49.224Z,101269.94
2023-03-26T13:55:00.545Z,101261.25
2023-03-26T13:58:02.054Z,101268.19
2023-03-26T14:01:07.913Z,101277.50
2023-03-26T14:04:02.641Z,101268.78
2023-03-26T14:07:06.941Z,101272.25
2023-03-26T14:09:55.324Z,101280.84
2023-03-26T14:12:53.124Z,101282.59
2023-03-26T14:15:43.709Z,101274.22
2023-03-26T14:18:35.276Z,101275.53
2023-03-26T14:21:39.131Z,101275.88
2023-03-26T14:24:47.936Z,101281.25
2023-03-26T14:28:01.378Z,101286.31
2023-03-26T14:31:19.613Z,101287.16
2023-03-26T14:34:23.601Z,101298.38
2023-03-26T14:37:36.910Z,101307.38
2023-03-26T14:40:29.515Z,101303.69
2023-03-26T14:43:52.283Z,101316.78
2023-03-26T14:47:14.902Z,101317.72
2023-03-26T14:50:20.511Z,101320.22
2023-03-26T14:53:22.129Z,101329.81
2023-03-26T14:56:25.842Z,101325.44
2023-03-26T14:59:11.260Z,101333.31
2023-03-26T15:02:21.126Z,101342.84
2023-03-26T15:06:09.817Z,101343.00
2023-03-26T15:09:27.820Z,101356.91
2023-03-26T15:12:31.007Z,101367.47
2023-03-26T15:15:45.557Z,101365.94
2023-03-26T15:18:59.572Z,101371.19
2023-03-26T15:22:20.072Z,101381.53
2023-03-26T15:25:17.765Z,101381.41
2023-03-26T15:28:39.864Z,101398.72
2023-03-26T15:31:47.605Z,101409.84
2023-03-26T15:34:51.448Z,101395.94
2023-03-26T15:37:46.438Z,101407.25
2023-03-26T15:40:43.098Z,101400.41
2023-03-26T15:44:24.672Z,101400.63
2023-03-26T15:47:48.358Z,101415.56
2023-03-26T15:51:11.261Z,101412.94
2023-03-26T15:54:08.720Z,101423.91
2023-03-26T15:57:16.860Z,101416.97
2023-03-26T16:00:23.015Z,101423.88
2023-03-26T16:03:25.601Z,101426.19
2023-03-26T16:06:34.711Z,101426.09
2023-03-26T16:09:56.044Z,101432.25
2023-03-26T16:13:17.431Z,101435.41
2023-03-26T16:16:02.674Z,101452.41
2023-03-26T16:19:23.512Z,101461.72
2023-03-26T16:22:15.240Z,101459.81
2023-03-26T16:25:34.138Z,101473.41
2023-03-26T16:28:31.015Z,101475.97
2023-03-26T16:31:36.866Z,101475.84
2023-03-26T16:34:38.916Z,101485.44
2023-03-26T16:37:35.788Z,101483.53
2023-03-26T16:40:32.328Z,101498.97
2023-03-26T16:43:36.673Z,101510.75
2023-03-26T16:46:36.280Z,101523.59
2023-03-26T16:49:26.803Z,101524.47
2023-03-26T16:52:15.142Z,101532.28
2023-03-26T16:55:22.143Z,101532.31
2023-03-26T16:58:28.012Z,101539.03
2023-03-26T17:01:32.686Z,101544.00
2023-03-26T17:04:23.400Z,101543.09
2023-03-26T17:07:35.295Z,101547.41
2023-03-26T17:10:39.968Z,101563.00
2023-03-26T17:13:48.286Z,101571.69
2023-03-26T17:17:07.746Z,101584.59
2023-03-26T17:20:11.823Z,101588.78
2023-03-26T17:23:27.548Z,101586.06
2023-03-26T17:26:22.752Z,101604.94
2023-03-26T17:29:33.384Z,101617.94
2023-03-26T17:32:21.671Z,101610.06
2023-03-26T17:35:09.357Z,101623.06
2023-03-26T17:37:54.803Z,101636.84
2023-03-26T17:40:49.597Z,101635.81
2023-03-26T17:43:50.111Z,101629.72
2023-03-26T17:46:48.192Z,101639.31
2023-03-26T17:49:35.602Z,101644.31
2023-03-26T17:52:26.600Z,101647.66
2023-03-26T17:55:18.561Z,101644.28
2023-03-26T17:58:31.854Z,101648.66
2023-03-26T18:01:44.956Z,101655.56
2023-03-26T18:04:40.123Z,101658.94
2023-03-26T18:07:25.436Z,101659.72
2023-03-26T18:11:05.368Z,101661.34
2023-03-26T18:13:50.640Z,101668.13
2023-03-26T18:16:51.786Z,101667.22
2023-03-26T18:19:54.949Z,101667.13
2023-03-26T18:22:40.605Z,101667.81
2023-03-26T18:25:33.971Z,101677.34
2023-03-26T18:28:29.448Z,101672.97
2023-03-26T18:31:19.444Z,101668.63
2023-03-26T18:34:13.828Z,101676.38
2023-03-26T18:37:11.340Z,101684.06
2023-03-26T18:40:10.477Z,101690.88
2023-03-26T18:42:59.177Z,101690.75
2023-03-26T18:45:48.148Z,101699.22
2023-03-26T18:48:33.999Z,101706.97
2023-03-26T18:51:23.103Z,101717.28
2023-03-26T18:54:16.999Z,101719.84
2023-03-26T18:57:19.765Z,101725.00
2023-03-26T19:00:18.639Z,101724.91
2023-03-26T19:03:07.916Z,101725.69
2023-03-26T19:05:55.967Z,101731.72
2023-03-26T19:08:46.760Z,101734.19
2023-03-26T19:11:33.802Z,101742.59
2023-03-26T19:14:20.674Z,101746.72
2023-03-26T19:17:07.296Z,101753.47
2023-03-26T19:19:54.243Z,101761.94
2023-03-26T19:22:44.800Z,101766.75
2023-03-26T19:25:46.093Z,101767.53
2023-03-26T19:28:32.903Z,101776.94
2023-03-26T19:31:24.524Z,101778.44
2023-03-26T19:34:15.758Z,101778.16
2023-03-26T19:37:04.429Z,101778.69
2023-03-26T19:39:52.796Z,101783.63
2023-03-26T19:42:43.353Z,101786.44
2023-03-26T19:45:34.871Z,101794.63
2023-03-26T19:48:45.969Z,101802.09
2023-03-26T19:51:36.987Z,101803.38
2023-03-26T19:54:22.548Z,101815.78
2023-03-26T19:57:09.804Z,101812.88
2023-03-26T19:59:55.865Z,101806.25
2023-03-26T20:02:42.873Z,101812.47
2023-03-26T20:05:32.742Z,101818.69
2023-03-26T20:08:19.787Z,101813.59
2023-03-26T20:11:05.557Z,101820.69
2023-03-26T20:13:52.447Z,101816.19
2023-03-26T20:16:38.451Z,101825.81
2023-03-26T20:19:25.165Z,101831.28
2023-03-26T20:22:21.432Z,101829.59
2023-03-26T20:25:32.812Z,101837.13
2023-03-26T20:28:19.430Z,101852.63
2023-03-26T20:31:04.940Z,101852.56
2023-03-26T20:33:52.016Z,101859.94
2023-03-26T20:36:38.373Z,101861.41
2023-03-26T20:39:25.363Z,101859.34
2023-03-26T20:42:13.553Z,101862.09
2023-03-26T20:45:00.184Z,101859.81
2023-03-26T20:47:46.594Z,101869.13
2023-03-26T20:50:35.654Z,101864.19
2023-03-26T20:53:21.519Z,101863.41
2023-03-26T20:56:14.027Z,101875.53
2023-03-26T21:01:51.256Z,101887.03
2023-03-26T21:04:36.603Z,101884.09
2023-03-26T21:07:22.122Z,101899.06
2023-03-26T21:10:08.330Z,101901.38
2023-03-26T21:13:06.074Z,101906.91
2023-03-26T21:15:52.639Z,101906.16
2023-03-26T21:18:38.202Z,101919.97
2023-03-26T21:21:52.684Z,101920.88
2023-03-26T21:24:41.986Z,101926.13
2023-03-26T21:27:46.093Z,101937.66
2023-03-26T21:30:32.898Z,101945.75
2023-03-26T21:33:18.751Z,101953.97
2023-03-26T21:36:04.771Z,101964.69
2023-03-26T21:38:50.714Z,101968.06
2023-03-26T21:41:49.096Z,101970.91
2023-03-26T21:44:51.278Z,101975.03
2023-03-26T21:47:37.176Z,101974.88
2023-03-26T21:50:23.697Z,101976.28
2023-03-26T21:53:15.444Z,101977.00
2023-03-26T21:56:23.893Z,101973.63
2023-03-26T21:59:09.253Z,101982.75
2023-03-26T22:02:13.807Z,101984.53
2023-03-26T22:05:16.449Z,101981.78
2023-03-26T22:08:04.529Z,101980.81
2023-03-26T22:10:49.922Z,101984.19
2023-03-26T22:13:35.972Z,101983.28
2023-03-26T22:16:25.230Z,101991.00
2023-03-26T22:19:12.585Z,101984.22
2023-03-26T22:22:01.678Z,101984.00
2023-03-26T22:24:47.275Z,101990.56
2023-03-26T22:27:32.723Z,102007.19
2023-03-26T22:30:30.607Z,102009.25
2023-03-26T22:33:17.937Z,102017.03
2023-03-26T22:36:03.785Z,102021.75
2023-03-26T22:38:53.088Z,102031.69
2023-03-26T22:41:39.217Z,102035.34
2023-03-26T22:44:24.898Z,102032.84
2023-03-26T22:47:10.233Z,102036.69
2023-03-26T22:49:55.985Z,102037.22
2023-03-26T22:52:41.653Z,102039.44
2023-03-26T22:55:28.754Z,102045.97
2023-03-26T22:58:15.298Z,102041.16
2023-03-26T23:01:22.974Z,102048.47
2023-03-26T23:04:08.754Z,102048.38
2023-03-26T23:06:55.105Z,102060.50
2023-03-26T23:09:40.394Z,102059.13
2023-03-26T23:12:25.739Z,102060.22
2023-03-26T23:15:11.704Z,102073.63
2023-03-26T23:17:58.393Z,102065.94
2023-03-26T23:20:55.893Z,102068.50
2023-03-26T23:23:41.726Z,102072.34
2023-03-26T23:26:34.975Z,102073.72
2023-03-26T23:29:23.786Z,102079.34
2023-03-26T23:32:23.620Z,102079.94
2023-03-26T23:35:10.109Z,102083.47
2023-03-26T23:37:56.096Z,102081.91
2023-03-26T23:40:44.631Z,102079.53
2023-03-26T23:43:53.435Z,102085.63
2023-03-26T23:46:41.720Z,102086.44
2023-03-26T23:49:27.342Z,102093.44
2023-03-26T23:52:13.781Z,102095.13
2023-03-26T23:55:02.581Z,102099.47
2023-03-26T23:57:48.727Z,102100.25
